createdAt,value
2018-05-27T00:02:51.393Z,75.90
2018-05-27T00:08:19.549Z,76.10
2018-05-27T00:13:48.459Z,76.10
2018-05-27T00:19:16.649Z,76.00
2018-05-27T00:24:45.844Z,76.20
2018-05-27T00:30:14.823Z,76.50
2018-05-27T00:35:43.016Z,76.30
2018-05-27T00:41:11.958Z,76.40
2018-05-27T00:46:40.138Z,76.50
2018-05-27T00:52:08.408Z,76.50
2018-05-27T00:57:36.664Z,76.80
2018-05-27T01:03:04.829Z,76.80
2018-05-27T01:08:33.754Z,77.10
2018-05-27T01:14:01.906Z,77.10
2018-05-27T01:19:30.048Z,77.20
2018-05-27T01:24:58.213Z,77.20
2018-05-27T01:30:26.356Z,77.20
2018-05-27T01:35:55.284Z,77.30
2018-05-27T01:41:24.201Z,77.40
2018-05-27T01:46:52.350Z,77.40
2018-05-27T01:52:21.263Z,77.10
2018-05-27T01:57:49.420Z,77.10
2018-05-27T02:03:18.546Z,77.40
2018-05-27T02:08:46.684Z,77.30
2018-05-27T02:14:14.836Z,77.50
2018-05-27T02:19:42.990Z,77.50
2018-05-27T02:25:12.149Z,77.60
2018-05-27T02:30:41.058Z,77.70
2018-05-27T02:36:09.230Z,77.70
2018-05-27T02:41:38.153Z,77.90
2018-05-27T02:47:06.320Z,77.90
2018-05-27T02:52:34.480Z,78.20
2018-05-27T02:58:03.390Z,78.10
2018-05-27T03:03:31.549Z,78.20
2018-05-27T03:08:59.684Z,78.40
2018-05-27T03:14:27.831Z,78.50
2018-05-27T03:19:55.979Z,78.60
2018-05-27T03:25:24.125Z,78.70
2018-05-27T03:30:52.260Z,78.70
2018-05-27T03:36:20.395Z,78.90
2018-05-27T03:41:48.562Z,78.70
2018-05-27T03:47:16.721Z,78.60
2018-05-27T03:52:44.854Z,78.60
2018-05-27T03:58:12.987Z,78.70
2018-05-27T04:03:41.166Z,78.50
2018-05-27T04:09:09.341Z,78.50
2018-05-27T04:14:38.265Z,78.20
2018-05-27T04:20:07.538Z,78.40
2018-05-27T04:25:37.135Z,78.30
2018-05-27T04:31:05.279Z,78.20
2018-05-27T04:36:33.484Z,78.00
2018-05-27T04:42:02.345Z,77.70
2018-05-27T04:47:30.488Z,77.60
2018-05-27T04:52:58.633Z,77.30
2018-05-27T04:58:26.775Z,76.90
2018-05-27T05:03:54.913Z,76.80
2018-05-27T05:09:23.111Z,76.50
2018-05-27T05:14:51.239Z,76.30
2018-05-27T05:20:19.362Z,76.10
2018-05-27T05:25:47.523Z,75.80
2018-05-27T05:31:15.665Z,75.20
2018-05-27T05:36:43.816Z,75.40
2018-05-27T05:42:11.999Z,74.30
2018-05-27T05:47:40.924Z,72.40
2018-05-27T05:53:09.937Z,72.10
2018-05-27T05:58:38.125Z,72.00
2018-05-27T06:04:06.989Z,71.40
2018-05-27T06:09:35.168Z,70.90
2018-05-27T06:15:04.081Z,69.70
2018-05-27T06:20:33.123Z,69.70
2018-05-27T06:26:01.275Z,69.60
2018-05-27T06:31:30.195Z,69.00
2018-05-27T06:36:58.344Z,69.00
2018-05-27T06:42:27.455Z,69.30
2018-05-27T06:47:55.608Z,68.30
2018-05-27T06:53:23.745Z,67.70
2018-05-27T06:58:51.866Z,67.00
2018-05-27T07:04:20.094Z,66.70
2018-05-27T07:09:48.205Z,66.20
2018-05-27T07:15:16.341Z,65.90
2018-05-27T07:20:44.517Z,64.20
2018-05-27T07:26:12.705Z,64.20
2018-05-27T07:31:40.881Z,63.30
2018-05-27T07:37:09.128Z,62.90
2018-05-27T07:42:37.490Z,63.00
2018-05-27T07:48:06.402Z,60.90
2018-05-27T07:53:34.544Z,60.80
2018-05-27T07:59:03.457Z,59.30
2018-05-27T08:04:31.607Z,59.20
2018-05-27T08:09:59.767Z,59.10
2018-05-27T08:15:27.938Z,60.00
2018-05-27T08:20:57.797Z,58.90
2018-05-27T08:26:25.981Z,58.80
2018-05-27T08:31:54.128Z,59.10
2018-05-27T08:37:22.269Z,59.00
2018-05-27T08:42:51.189Z,59.40
2018-05-27T08:48:19.324Z,59.30
2018-05-27T08:53:48.231Z,59.90
2018-05-27T08:59:16.368Z,59.90
2018-05-27T09:04:45.303Z,59.60
2018-05-27T09:10:14.231Z,60.20
2018-05-27T09:15:42.411Z,60.20
2018-05-27T09:21:10.613Z,59.30
2018-05-27T09:26:38.756Z,58.70
2018-05-27T09:32:06.930Z,59.10
2018-05-27T09:37:35.847Z,57.10
2018-05-27T09:43:04.764Z,57.20
2018-05-27T09:48:32.912Z,57.10
2018-05-27T09:54:01.833Z,56.80
2018-05-27T09:59:29.982Z,56.70
2018-05-27T10:04:58.887Z,58.10
2018-05-27T10:10:27.046Z,58.10
2018-05-27T10:15:55.210Z,57.10
2018-05-27T10:21:23.380Z,56.60
2018-05-27T10:26:52.280Z,56.40
2018-05-27T10:32:20.437Z,56.30
2018-05-27T10:37:49.456Z,54.40
2018-05-27T10:43:17.640Z,54.30
2018-05-27T10:48:45.806Z,52.80
2018-05-27T10:54:14.735Z,50.50
2018-05-27T10:59:43.744Z,50.70
2018-05-27T11:05:11.878Z,50.60
2018-05-27T11:10:40.029Z,48.40
2018-05-27T11:16:08.925Z,49.10
2018-05-27T11:21:37.085Z,49.00
2018-05-27T11:27:06.033Z,47.10
2018-05-27T11:32:34.189Z,47.00
2018-05-27T11:38:02.354Z,46.70
2018-05-27T11:43:31.278Z,48.20
2018-05-27T11:48:59.420Z,48.10
2018-05-27T11:54:28.349Z,48.80
2018-05-27T11:59:56.485Z,48.80
2018-05-27T12:05:24.650Z,49.40
2018-05-27T12:10:52.851Z,49.40
2018-05-27T12:16:21.962Z,48.90
2018-05-27T12:21:50.872Z,50.00
2018-05-27T12:27:20.969Z,50.00
2018-05-27T12:32:49.130Z,49.20
2018-05-27T12:38:17.256Z,50.00
2018-05-27T12:43:45.408Z,49.30
2018-05-27T12:49:14.501Z,48.30
2018-05-27T12:54:42.675Z,48.10
2018-05-27T13:00:11.685Z,47.60
2018-05-27T13:05:39.885Z,47.50
2018-05-27T13:11:08.284Z,47.80
2018-05-27T13:16:38.640Z,46.90
2018-05-27T13:22:07.586Z,46.00
2018-05-27T13:27:35.873Z,45.90
2018-05-27T13:33:04.007Z,45.40
2018-05-27T13:38:32.951Z,46.00
2018-05-27T13:44:01.872Z,44.80
2018-05-27T13:49:30.015Z,44.90
2018-05-27T13:54:58.970Z,43.00
2018-05-27T14:00:27.116Z,43.00
2018-05-27T14:05:55.304Z,43.00
2018-05-27T14:11:23.466Z,42.20
2018-05-27T14:16:51.623Z,41.70
2018-05-27T14:22:20.528Z,41.60
2018-05-27T14:27:48.687Z,41.50
2018-05-27T14:33:17.686Z,40.40
2018-05-27T14:38:51.710Z,40.40
2018-05-27T14:44:21.391Z,40.30
2018-05-27T14:49:49.581Z,40.30
2018-05-27T14:55:18.696Z,38.90
2018-05-27T15:00:46.832Z,39.60
2018-05-27T15:06:14.994Z,39.00
2018-05-27T15:11:43.181Z,40.30
2018-05-27T15:17:11.337Z,40.60
2018-05-27T15:22:39.532Z,41.40
2018-05-27T15:28:07.730Z,41.30
2018-05-27T15:33:36.246Z,42.70
2018-05-27T15:39:06.087Z,42.80
2018-05-27T15:44:34.232Z,42.70
2018-05-27T15:50:03.173Z,44.00
2018-05-27T15:55:32.079Z,44.20
2018-05-27T16:01:00.273Z,44.20
2018-05-27T16:06:28.449Z,44.60
2018-05-27T16:11:57.359Z,44.90
2018-05-27T16:17:25.507Z,45.50
2018-05-27T16:22:55.429Z,44.50
2018-05-27T16:28:24.528Z,44.40
2018-05-27T16:33:52.780Z,45.10
2018-05-27T16:39:20.988Z,45.70
2018-05-27T16:44:49.160Z,45.40
2018-05-27T16:50:18.149Z,44.90
2018-05-27T16:55:46.420Z,44.90
2018-05-27T17:01:14.588Z,44.50
2018-05-27T17:06:42.757Z,45.00
2018-05-27T17:12:11.913Z,44.60
2018-05-27T17:17:40.094Z,44.80
2018-05-27T17:23:08.260Z,44.60
2018-05-27T17:28:37.205Z,44.80
2018-05-27T17:34:06.179Z,44.50
2018-05-27T17:39:34.308Z,44.50
2018-05-27T17:45:02.464Z,45.00
2018-05-27T17:50:31.460Z,44.90
2018-05-27T17:55:59.613Z,45.10
2018-05-27T18:01:27.755Z,45.30
2018-05-27T18:06:56.678Z,46.10
2018-05-27T18:12:24.809Z,46.10
2018-05-27T18:17:53.712Z,46.10
2018-05-27T18:23:21.860Z,46.00
2018-05-27T18:28:50.767Z,46.70
2018-05-27T18:34:18.909Z,46.60
2018-05-27T18:39:47.829Z,47.80
2018-05-27T18:45:16.279Z,47.20
2018-05-27T18:50:45.298Z,47.70
2018-05-27T18:56:13.519Z,47.70
2018-05-27T19:01:41.767Z,48.40
2018-05-27T19:07:10.711Z,48.50
2018-05-27T19:12:39.799Z,48.70
2018-05-27T19:18:07.986Z,48.70
2018-05-27T19:23:36.188Z,49.20
2018-05-27T19:29:04.347Z,49.80
2018-05-27T19:34:34.425Z,50.40
2018-05-27T19:40:02.572Z,50.80
2018-05-27T19:45:30.721Z,51.10
2018-05-27T19:50:58.974Z,51.90
2018-05-27T19:56:27.190Z,52.80
2018-05-27T20:01:56.387Z,52.70
2018-05-27T20:07:25.286Z,54.40
2018-05-27T20:12:54.395Z,53.70
2018-05-27T20:18:23.547Z,54.10
2018-05-27T20:23:51.790Z,54.50
2018-05-27T20:29:20.035Z,55.20
2018-05-27T20:34:49.180Z,56.30
2018-05-27T20:40:17.423Z,56.00
2018-05-27T20:45:46.390Z,56.70
2018-05-27T20:51:14.772Z,56.60
2018-05-27T20:56:43.058Z,57.00
2018-05-27T21:02:11.993Z,58.20
2018-05-27T21:07:40.194Z,58.20
2018-05-27T21:13:08.443Z,58.80
2018-05-27T21:18:36.741Z,59.10
2018-05-27T21:24:04.933Z,60.00
2018-05-27T21:29:33.870Z,60.80
2018-05-27T21:35:07.003Z,61.10
2018-05-27T21:40:36.158Z,61.20
2018-05-27T21:46:05.140Z,64.30
2018-05-27T21:51:33.994Z,62.90
2018-05-27T21:57:02.142Z,63.00
2018-05-27T22:02:30.301Z,63.10
2018-05-27T22:07:58.473Z,64.30
2018-05-27T22:13:26.627Z,64.00
2018-05-27T22:18:54.776Z,65.20
2018-05-27T22:24:22.948Z,65.50
2018-05-27T22:29:51.872Z,66.40
2018-05-27T22:35:20.013Z,66.50
2018-05-27T22:40:48.180Z,67.40
2018-05-27T22:46:16.341Z,67.00
2018-05-27T22:51:45.282Z,67.40
2018-05-27T22:57:14.225Z,67.80
2018-05-27T23:02:42.627Z,67.80
2018-05-27T23:08:10.809Z,68.10
2018-05-27T23:13:38.973Z,68.70
2018-05-27T23:19:07.891Z,68.90
2018-05-27T23:24:36.047Z,68.90
2018-05-27T23:30:04.963Z,69.60
2018-05-27T23:35:36.710Z,69.50
2018-05-27T23:41:04.855Z,70.50
2018-05-27T23:46:32.997Z,70.00
2018-05-27T23:52:01.149Z,70.10
2018-05-27T23:57:30.060Z,70.40
